Time;durP1;ratioP1;P1;durP2;ratioP2;P2;SDS_P1;SDS_P2;PMS_P1;PMS_P2;Temp;Humidity;BMP_temperature;BMP_pressure;BME280_temperature;BME280_humidity;BME280_pressure;Samples;Min_cycle;Max_cycle;Signal;HPM_P1;HPM_P2
2021/04/24 00:00:56;;;;;;;10.65;6.35;;;6.40;96.30;;;;;;5105883;28;20063;-86
2021/04/24 00:03:23;;;;;;;11.35;7.57;;;6.40;95.90;;;;;;5119464;28;20024;-88
2021/04/24 00:05:49;;;;;;;13.25;7.30;;;6.30;96.10;;;;;;5116340;28;20439;-88
2021/04/24 00:08:16;;;;;;;13.25;8.02;;;6.40;96.30;;;;;;5100044;28;20043;-87
2021/04/24 00:10:44;;;;;;;12.85;7.97;;;6.40;96.50;;;;;;5102614;28;20020;-86
2021/04/24 00:13:11;;;;;;;12.00;7.97;;;6.40;96.60;;;;;;5110816;28;20104;-86
2021/04/24 00:15:38;;;;;;;10.27;7.90;;;6.40;96.30;;;;;;5100026;28;20016;-88
2021/04/24 00:18:05;;;;;;;10.30;8.10;;;6.40;96.70;;;;;;5109193;28;20655;-91
2021/04/24 00:20:32;;;;;;;14.32;9.30;;;6.40;97.00;;;;;;5099412;28;20090;-87
2021/04/24 00:22:58;;;;;;;12.60;8.50;;;6.40;97.20;;;;;;5117855;28;20484;-87
2021/04/24 00:25:24;;;;;;;12.60;9.45;;;6.40;97.20;;;;;;5103930;28;20024;-87
2021/04/24 00:27:50;;;;;;;11.38;8.05;;;6.40;96.90;;;;;;5100963;28;20024;-89
2021/04/24 00:30:17;;;;;;;13.23;8.15;;;6.40;97.30;;;;;;5122260;28;20046;-87
2021/04/24 00:32:43;;;;;;;10.70;8.05;;;6.40;97.00;;;;;;5103992;28;20051;-87
2021/04/24 00:35:12;;;;;;;11.18;8.10;;;6.50;96.80;;;;;;5093124;28;20028;-86
2021/04/24 00:37:38;;;;;;;10.73;8.07;;;6.40;96.20;;;;;;5107023;28;20016;-88
2021/04/24 00:40:06;;;;;;;10.32;7.80;;;6.40;95.70;;;;;;5110828;28;20028;-89
2021/04/24 00:42:32;;;;;;;11.35;7.50;;;6.30;95.50;;;;;;5110946;28;20023;-89
2021/04/24 00:44:58;;;;;;;10.25;7.15;;;6.20;95.40;;;;;;5116220;28;20031;-87
2021/04/24 00:47:24;;;;;;;10.88;7.07;;;6.20;95.60;;;;;;5123004;28;20027;-88
2021/04/24 00:49:51;;;;;;;11.55;7.40;;;6.20;95.60;;;;;;5108699;28;20069;-88
2021/04/24 00:52:18;;;;;;;11.07;7.70;;;6.20;95.90;;;;;;5102347;28;20104;-89
2021/04/24 00:54:44;;;;;;;11.90;8.57;;;6.30;96.30;;;;;;5094857;28;20579;-90
2021/04/24 00:57:11;;;;;;;10.18;7.45;;;6.30;96.70;;;;;;5114872;28;20057;-89
2021/04/24 00:59:38;;;;;;;12.85;7.90;;;6.30;96.60;;;;;;5119327;28;20027;-91
2021/04/24 01:02:05;;;;;;;11.00;7.87;;;6.30;96.70;;;;;;5095601;28;20036;-89
2021/04/24 01:04:32;;;;;;;;;;;6.40;96.70;;;;;;5099370;28;20012;-92
2021/04/24 01:07:04;;;;;;;11.93;8.60;;;6.30;96.70;;;;;;5103456;28;19950;-92
2021/04/24 01:09:31;;;;;;;12.90;8.73;;;6.40;96.90;;;;;;5114326;28;20046;-90
2021/04/24 01:11:57;;;;;;;11.98;8.35;;;6.30;96.90;;;;;;5103262;28;20024;-90
2021/04/24 01:14:23;;;;;;;12.18;8.02;;;6.40;96.80;;;;;;5098865;28;20009;-91
2021/04/24 01:16:49;;;;;;;10.80;7.97;;;6.40;96.60;;;;;;5087033;28;20024;-89
2021/04/24 01:19:21;;;;;;;15.30;9.38;;;6.40;96.30;;;;;;5097753;28;20028;-90
2021/04/24 01:21:49;;;;;;;10.85;7.75;;;6.40;95.80;;;;;;5086569;28;20032;-89
2021/04/24 01:24:16;;;;;;;12.00;8.18;;;6.40;96.10;;;;;;5109658;28;20020;-89
2021/04/24 01:26:42;;;;;;;12.07;7.88;;;6.50;96.30;;;;;;5100060;28;20024;-90
2021/04/24 01:29:09;;;;;;;11.18;8.75;;;6.40;96.30;;;;;;5112129;28;20019;-88
2021/04/24 01:31:36;;;;;;;12.75;8.45;;;6.50;96.20;;;;;;5130791;28;20186;-90
2021/04/24 01:34:05;;;;;;;12.25;7.75;;;6.50;95.40;;;;;;5108340;28;20038;-90
2021/04/24 01:36:31;;;;;;;11.55;8.77;;;6.50;95.50;;;;;;5099051;28;20032;-93
2021/04/24 01:38:57;;;;;;;11.85;8.27;;;6.50;95.50;;;;;;5103627;28;20465;-90
2021/04/24 01:41:23;;;;;;;12.85;9.35;;;6.50;95.80;;;;;;5125077;28;20034;-90
2021/04/24 01:43:54;;;;;;;13.88;9.75;;;6.50;95.60;;;;;;5102629;28;20028;-90
2021/04/24 01:46:21;;;;;;;14.43;9.95;;;6.40;95.20;;;;;;5097217;28;20020;-91
2021/04/24 01:48:47;;;;;;;12.52;8.27;;;6.40;95.30;;;;;;5101193;28;20028;-88
2021/04/24 01:51:14;;;;;;;10.65;8.07;;;6.40;95.50;;;;;;5107785;28;20027;-89
2021/04/24 01:53:41;;;;;;;13.97;9.73;;;6.30;95.80;;;;;;5110342;28;20054;-89
2021/04/24 01:56:10;;;;;;;11.02;9.23;;;6.30;95.90;;;;;;5116073;28;20030;-90
2021/04/24 01:58:36;;;;;;;14.13;8.65;;;6.30;95.70;;;;;;5110320;28;20078;-92
2021/04/24 02:01:08;;;;;;;13.45;7.82;;;6.20;95.80;;;;;;5105403;28;20043;-89
2021/04/24 02:03:34;;;;;;;13.52;7.57;;;6.20;95.80;;;;;;5104265;28;20035;-90
2021/04/24 02:06:01;;;;;;;10.85;7.88;;;6.10;95.60;;;;;;5102825;28;20129;-91
2021/04/24 02:08:40;;;;;;;9.88;8.73;;;6.00;95.90;;;;;;5096123;28;20028;-90
2021/04/24 02:11:07;;;;;;;14.60;8.05;;;5.90;96.40;;;;;;5095192;28;20024;-90
2021/04/24 02:13:37;;;;;;;12.38;7.93;;;5.90;96.40;;;;;;5093265;28;20504;-91
2021/04/24 02:16:06;;;;;;;11.25;7.93;;;5.80;96.60;;;;;;5108361;28;20102;-90
2021/04/24 02:18:32;;;;;;;11.57;7.55;;;5.70;96.20;;;;;;5090186;28;20012;-91
2021/04/24 02:20:58;;;;;;;11.65;7.38;;;5.60;96.30;;;;;;5089920;28;20101;-89
2021/04/24 02:23:24;;;;;;;14.82;8.32;;;5.60;96.50;;;;;;5084481;28;20402;-89
2021/04/24 02:25:51;;;;;;;10.75;7.00;;;5.60;96.90;;;;;;5116865;28;20004;-91
2021/04/24 02:28:17;;;;;;;9.65;6.45;;;5.60;96.60;;;;;;5114932;28;20020;-90
2021/04/24 02:30:45;;;;;;;10.77;6.78;;;5.60;96.70;;;;;;5122016;28;20118;-90
2021/04/24 02:33:12;;;;;;;12.98;8.23;;;5.60;97.00;;;;;;5112113;28;20091;-89
2021/04/24 02:35:56;;;;;;;11.05;6.82;;;5.60;97.20;;;;;;5105849;28;20032;-90
2021/04/24 02:38:24;;;;;;;15.50;8.57;;;5.50;97.30;;;;;;5121351;28;20135;-89
2021/04/24 02:40:52;;;;;;;10.75;7.28;;;5.50;97.40;;;;;;5095381;28;20036;-91
2021/04/24 02:43:18;;;;;;;10.57;8.75;;;5.50;97.50;;;;;;5112983;28;20012;-91
2021/04/24 02:45:45;;;;;;;11.60;8.55;;;5.50;97.60;;;;;;5123518;28;20034;-90
2021/04/24 02:48:11;;;;;;;12.77;8.48;;;5.50;97.60;;;;;;5110772;28;20023;-89
2021/04/24 02:50:37;;;;;;;15.93;10.70;;;5.60;97.80;;;;;;5103543;28;20439;-91
2021/04/24 02:53:03;;;;;;;14.07;10.85;;;5.70;98.10;;;;;;5106545;28;20055;-89
2021/04/24 02:55:30;;;;;;;13.57;8.95;;;5.70;98.20;;;;;;5103857;28;20094;-90
2021/04/24 02:57:56;;;;;;;14.00;9.57;;;5.70;98.10;;;;;;5103681;28;20024;-92
2021/04/24 03:00:22;;;;;;;11.73;8.27;;;5.70;97.80;;;;;;5114067;28;20039;-91
2021/04/24 03:03:01;;;;;;;12.93;8.93;;;5.70;97.80;;;;;;5110253;28;20064;-94
2021/04/24 03:05:28;;;;;;;10.52;7.35;;;5.70;97.90;;;;;;5103685;28;20464;-93
2021/04/24 03:07:54;;;;;;;10.38;6.75;;;5.60;97.60;;;;;;5098342;28;20005;-90
2021/04/24 03:10:20;;;;;;;9.27;6.63;;;5.60;97.30;;;;;;5114355;28;20020;-89
2021/04/24 03:12:46;;;;;;;9.65;5.65;;;5.50;97.40;;;;;;5126331;28;20445;-87
2021/04/24 03:15:12;;;;;;;8.55;5.72;;;5.40;97.20;;;;;;5122029;27;20403;-87
2021/04/24 03:17:38;;;;;;;10.13;5.43;;;5.40;97.60;;;;;;5117402;28;20024;-89
2021/04/24 03:20:07;;;;;;;8.15;4.97;;;5.40;97.90;;;;;;5105567;28;20083;-89
2021/04/24 03:22:33;;;;;;;6.75;5.63;;;5.40;97.70;;;;;;5108539;28;20031;-91
2021/04/24 03:24:59;;;;;;;8.20;5.63;;;5.40;97.70;;;;;;5100183;28;20009;-89
2021/04/24 03:27:25;;;;;;;8.85;5.93;;;5.40;97.80;;;;;;5102549;28;20039;-90
2021/04/24 03:29:51;;;;;;;9.45;6.20;;;5.30;97.70;;;;;;5101373;28;20020;-89
2021/04/24 03:32:17;;;;;;;8.45;6.50;;;5.30;97.30;;;;;;5119782;28;20016;-90
2021/04/24 03:34:42;;;;;;;8.45;7.05;;;5.20;97.10;;;;;;5122138;28;20016;-89
2021/04/24 03:37:08;;;;;;;8.77;6.70;;;5.20;97.20;;;;;;5133568;28;20066;-90
2021/04/24 03:39:34;;;;;;;8.95;6.45;;;5.10;97.40;;;;;;5111899;28;20028;-90
2021/04/24 03:42:00;;;;;;;9.48;6.13;;;5.00;97.20;;;;;;5130939;28;20036;-88
2021/04/24 03:44:26;;;;;;;8.30;6.40;;;5.00;97.20;;;;;;5118248;28;20088;-90
2021/04/24 03:46:52;;;;;;;10.40;7.75;;;5.00;97.50;;;;;;5105771;28;20072;-89
2021/04/24 03:49:18;;;;;;;8.48;6.53;;;5.00;97.70;;;;;;5107536;28;20024;-91
2021/04/24 03:51:45;;;;;;;10.35;7.07;;;5.10;97.70;;;;;;5106190;28;20026;-89
2021/04/24 03:54:11;;;;;;;8.75;6.25;;;5.10;97.80;;;;;;5098440;28;20085;-90
2021/04/24 03:56:36;;;;;;;8.90;6.22;;;5.10;98.10;;;;;;5102134;28;20020;-90
2021/04/24 03:59:03;;;;;;;9.90;6.93;;;5.10;98.00;;;;;;5101929;28;20047;-89
2021/04/24 04:01:29;;;;;;;8.77;6.65;;;5.00;98.00;;;;;;5094441;28;20433;-91
2021/04/24 04:03:55;;;;;;;11.60;7.70;;;5.10;98.00;;;;;;5091310;28;20031;-89
2021/04/24 04:06:21;;;;;;;10.73;7.55;;;5.00;97.80;;;;;;5110797;28;20034;-89
2021/04/24 04:08:47;;;;;;;8.63;6.85;;;5.00;97.80;;;;;;5099070;28;20028;-89
2021/04/24 04:11:13;;;;;;;8.93;7.40;;;5.00;98.10;;;;;;5095597;28;20047;-90
2021/04/24 04:13:39;;;;;;;11.60;8.13;;;5.00;98.20;;;;;;5110045;28;20031;-91
2021/04/24 04:16:05;;;;;;;8.98;6.95;;;5.00;98.10;;;;;;5101680;28;20158;-89
2021/04/24 04:18:35;;;;;;;9.27;7.38;;;5.00;98.30;;;;;;5090866;28;20067;-90
2021/04/24 04:21:02;;;;;;;8.82;6.53;;;5.10;98.50;;;;;;5105836;28;20059;-88
2021/04/24 04:23:28;;;;;;;10.52;7.20;;;5.20;98.50;;;;;;5099228;28;20070;-89
2021/04/24 04:25:56;;;;;;;9.40;7.28;;;5.20;98.50;;;;;;5098296;28;20024;-91
2021/04/24 04:28:23;;;;;;;13.38;7.93;;;5.30;98.40;;;;;;5106796;28;20013;-90
2021/04/24 04:30:50;;;;;;;9.35;6.22;;;5.30;98.30;;;;;;5105033;28;20024;-88
2021/04/24 04:33:16;;;;;;;11.15;7.65;;;5.20;98.30;;;;;;5110674;28;20028;-88
2021/04/24 04:35:43;;;;;;;12.05;8.63;;;5.10;98.10;;;;;;5115575;28;20106;-91
2021/04/24 04:38:08;;;;;;;11.63;8.17;;;5.10;98.10;;;;;;5094002;28;20021;-89
2021/04/24 04:40:35;;;;;;;13.48;9.98;;;5.10;98.40;;;;;;5114281;28;20028;-90
2021/04/24 04:43:02;;;;;;;9.63;7.65;;;5.20;98.50;;;;;;5114691;28;20042;-89
2021/04/24 04:45:29;;;;;;;11.68;7.80;;;5.20;98.70;;;;;;5114621;28;20020;-90
2021/04/24 04:47:57;;;;;;;12.93;8.55;;;5.20;98.60;;;;;;5100934;28;20052;-91
2021/04/24 04:50:30;;;;;;;14.38;7.22;;;5.10;98.40;;;;;;5059920;28;20052;-91
2021/04/24 04:52:57;;;;;;;10.82;6.95;;;5.00;98.50;;;;;;5060619;28;20121;-89
2021/04/24 04:55:23;;;;;;;11.23;7.57;;;5.00;98.40;;;;;;5054522;28;20101;-90
2021/04/24 04:57:50;;;;;;;12.45;7.72;;;5.00;98.70;;;;;;5057263;28;20041;-89
2021/04/24 05:00:17;;;;;;;9.70;7.53;;;5.10;98.70;;;;;;5070962;28;20045;-90
2021/04/24 05:02:44;;;;;;;11.45;7.53;;;5.10;98.70;;;;;;5046871;28;20032;-91
2021/04/24 05:05:12;;;;;;;8.25;7.03;;;5.10;98.70;;;;;;5032012;28;20013;-90
2021/04/24 05:07:38;;;;;;;;;;;5.10;98.60;;;;;;5040609;28;20067;-91
2021/04/24 05:10:05;;;;;;;10.65;6.95;;;5.10;98.40;;;;;;5020735;28;20386;-91
2021/04/24 05:12:33;;;;;;;9.32;6.75;;;5.00;98.20;;;;;;5042998;28;20029;-89
2021/04/24 05:14:59;;;;;;;11.93;8.32;;;4.90;98.10;;;;;;5041658;28;20046;-85
2021/04/24 05:17:26;;;;;;;8.02;7.10;;;4.90;98.00;;;;;;5037709;28;20036;-86
2021/04/24 05:19:52;;;;;;;12.73;7.30;;;4.80;98.00;;;;;;5034281;28;20049;-87
2021/04/24 05:22:18;;;;;;;12.02;8.63;;;4.80;98.20;;;;;;5055718;28;20029;-86
2021/04/24 05:24:44;;;;;;;9.43;7.47;;;4.90;98.20;;;;;;5048811;28;20100;-91
2021/04/24 05:27:10;;;;;;;8.93;7.00;;;4.90;98.30;;;;;;5055014;28;20032;-92
2021/04/24 05:29:36;;;;;;;11.27;7.75;;;4.80;98.20;;;;;;5054613;28;20604;-89
2021/04/24 05:32:03;;;;;;;10.38;7.55;;;4.80;98.20;;;;;;5073603;28;20037;-90
2021/04/24 05:34:30;;;;;;;9.95;7.32;;;4.90;98.20;;;;;;5024440;28;20109;-88
2021/04/24 05:36:56;;;;;;;10.85;6.40;;;4.90;98.10;;;;;;5034790;28;20044;-90
2021/04/24 05:39:23;;;;;;;12.40;7.32;;;4.90;98.10;;;;;;5031465;28;20034;-89
2021/04/24 05:41:49;;;;;;;6.63;5.45;;;4.90;98.30;;;;;;5037917;28;20077;-91
2021/04/24 05:44:15;;;;;;;7.40;4.68;;;4.90;98.30;;;;;;5047155;28;20124;-86
2021/04/24 05:46:41;;;;;;;8.30;5.65;;;4.90;97.90;;;;;;5034178;28;20034;-88
2021/04/24 05:49:08;;;;;;;6.32;4.53;;;4.80;97.90;;;;;;5036212;28;20034;-86
2021/04/24 05:51:38;;;;;;;6.50;4.78;;;4.80;98.00;;;;;;5034889;28;20037;-93
2021/04/24 05:54:04;;;;;;;6.35;4.38;;;4.80;98.00;;;;;;5034319;28;20033;-89
2021/04/24 05:56:30;;;;;;;6.28;4.40;;;4.80;97.90;;;;;;5030931;28;20029;-88
2021/04/24 05:58:56;;;;;;;9.77;4.85;;;4.70;97.40;;;;;;5043190;28;20087;-87
2021/04/24 06:01:22;;;;;;;7.60;5.00;;;4.70;97.60;;;;;;5038083;28;20482;-82
2021/04/24 06:03:52;;;;;;;7.82;4.57;;;4.70;97.80;;;;;;5028975;28;20172;-90
2021/04/24 06:06:18;;;;;;;5.55;4.45;;;4.70;97.50;;;;;;5068174;28;20024;-87
2021/04/24 06:08:43;;;;;;;8.35;5.85;;;4.70;97.40;;;;;;5059681;28;20094;-86
2021/04/24 06:11:09;;;;;;;6.43;5.00;;;4.70;97.40;;;;;;5084842;28;20021;-84
2021/04/24 06:13:35;;;;;;;7.53;4.85;;;4.70;97.50;;;;;;5084158;28;20054;-88
2021/04/24 06:16:01;;;;;;;8.77;5.97;;;4.70;97.50;;;;;;5061810;28;20044;-87
2021/04/24 06:18:27;;;;;;;5.88;5.13;;;4.70;97.60;;;;;;5089158;28;20464;-86
2021/04/24 06:20:53;;;;;;;6.18;4.85;;;4.70;97.50;;;;;;5074777;28;20222;-92
2021/04/24 06:23:19;;;;;;;9.73;6.63;;;4.70;97.30;;;;;;5089285;28;20032;-82
2021/04/24 06:25:45;;;;;;;7.55;5.38;;;4.70;97.50;;;;;;5093466;28;20034;-88
2021/04/24 06:28:11;;;;;;;7.22;3.63;;;4.70;97.60;;;;;;5111718;28;20035;-87
2021/04/24 06:30:37;;;;;;;6.15;4.32;;;4.70;97.60;;;;;;5100986;28;20036;-85
2021/04/24 06:33:04;;;;;;;6.43;4.00;;;4.60;97.50;;;;;;5090831;28;20191;-89
2021/04/24 06:35:30;;;;;;;6.07;4.47;;;4.50;97.10;;;;;;5099029;28;20115;-82
2021/04/24 06:37:59;;;;;;;5.15;4.07;;;4.50;97.20;;;;;;5098279;28;20517;-77
2021/04/24 06:40:26;;;;;;;7.07;4.05;;;4.40;97.10;;;;;;5110090;28;20027;-79
2021/04/24 06:42:53;;;;;;;4.32;3.67;;;4.40;97.20;;;;;;5102548;28;20028;-82
2021/04/24 06:45:19;;;;;;;4.97;3.78;;;4.50;97.20;;;;;;5104012;28;20503;-83
2021/04/24 06:47:47;;;;;;;5.63;4.40;;;4.40;97.30;;;;;;5103575;28;20063;-80
2021/04/24 06:50:14;;;;;;;4.97;4.05;;;4.50;97.60;;;;;;5107380;28;20016;-84
2021/04/24 06:52:39;;;;;;;6.05;4.72;;;4.60;97.70;;;;;;5109026;28;20466;-85
2021/04/24 06:55:08;;;;;;;6.97;4.68;;;4.60;97.60;;;;;;5094067;28;20020;-87
2021/04/24 06:57:33;;;;;;;7.13;5.38;;;4.50;97.40;;;;;;5110803;28;20024;-89
2021/04/24 06:59:59;;;;;;;6.45;4.93;;;4.50;97.60;;;;;;5106916;28;20103;-81
2021/04/24 07:02:25;;;;;;;4.80;3.38;;;4.50;97.70;;;;;;5111606;28;20069;-83
2021/04/24 07:04:51;;;;;;;6.47;4.65;;;4.50;97.70;;;;;;5108023;28;20024;-82
2021/04/24 07:07:17;;;;;;;6.40;4.47;;;4.50;97.60;;;;;;5096646;28;20073;-83
2021/04/24 07:09:46;;;;;;;5.88;4.47;;;4.50;97.60;;;;;;5099543;28;20099;-85
2021/04/24 07:12:11;;;;;;;5.55;4.10;;;4.50;97.50;;;;;;5099322;28;20056;-81
2021/04/24 07:14:37;;;;;;;7.07;4.05;;;4.60;97.50;;;;;;5105149;28;20023;-83
2021/04/24 07:17:04;;;;;;;7.65;4.22;;;4.50;97.20;;;;;;5108846;28;20020;-86
2021/04/24 07:19:30;;;;;;;6.03;4.55;;;4.50;97.30;;;;;;5108308;28;20042;-80
2021/04/24 07:21:55;;;;;;;7.70;5.45;;;4.50;97.60;;;;;;5101207;28;20047;-84
2021/04/24 07:24:21;;;;;;;6.25;5.65;;;4.60;98.00;;;;;;5094431;28;20020;-85
2021/04/24 07:26:47;;;;;;;6.40;5.18;;;4.60;98.40;;;;;;5101426;28;20032;-84
2021/04/24 07:29:13;;;;;;;13.55;9.15;;;4.80;98.70;;;;;;5100072;28;20032;-86
2021/04/24 07:31:39;;;;;;;10.82;7.03;;;4.80;98.60;;;;;;5098869;28;20389;-90
2021/04/24 07:34:07;;;;;;;5.88;3.97;;;4.90;98.50;;;;;;5101688;28;20028;-89
2021/04/24 07:36:33;;;;;;;4.50;3.55;;;4.80;98.50;;;;;;5115167;28;20015;-87
2021/04/24 07:38:59;;;;;;;7.45;3.83;;;4.80;98.10;;;;;;5106980;28;20052;-84
2021/04/24 07:41:25;;;;;;;6.28;3.78;;;4.70;98.00;;;;;;5106984;28;20040;-87
2021/04/24 07:43:51;;;;;;;5.80;3.63;;;4.70;98.20;;;;;;5097405;28;20020;-88
2021/04/24 07:46:18;;;;;;;5.72;4.07;;;4.60;98.20;;;;;;5105468;28;20024;-86
2021/04/24 07:48:44;;;;;;;7.07;4.22;;;4.60;98.30;;;;;;5110268;28;20023;-90
2021/04/24 07:51:10;;;;;;;8.18;4.03;;;4.60;98.50;;;;;;5116615;28;20031;-83
2021/04/24 07:53:37;;;;;;;6.00;4.50;;;4.60;98.50;;;;;;5106952;28;20421;-89
2021/04/24 07:56:03;;;;;;;8.00;5.25;;;4.60;98.30;;;;;;5097887;28;20039;-85
2021/04/24 07:58:29;;;;;;;9.25;6.05;;;4.50;98.40;;;;;;5109694;28;20012;-92
2021/04/24 08:00:56;;;;;;;6.82;4.95;;;4.60;98.70;;;;;;5099219;28;20139;-87
2021/04/24 08:03:21;;;;;;;6.35;4.97;;;4.50;98.50;;;;;;5098715;28;20381;-86
2021/04/24 08:05:47;;;;;;;7.72;4.40;;;4.50;98.40;;;;;;5101577;28;20024;-82
2021/04/24 08:08:13;;;;;;;5.38;3.63;;;4.50;98.40;;;;;;5099466;28;20016;-87
2021/04/24 08:10:39;;;;;;;5.30;3.65;;;4.50;98.30;;;;;;5104981;28;20022;-86
2021/04/24 08:13:05;;;;;;;6.22;4.47;;;4.40;98.00;;;;;;5095220;28;20028;-85
2021/04/24 08:15:31;;;;;;;6.13;3.22;;;4.40;97.60;;;;;;5106916;28;20085;-87
2021/04/24 08:17:58;;;;;;;6.32;3.25;;;4.30;97.40;;;;;;5108745;28;20019;-83
2021/04/24 08:20:24;;;;;;;4.82;4.28;;;4.30;97.50;;;;;;5099516;28;20040;-83
2021/04/24 08:22:50;;;;;;;7.30;5.93;;;4.30;97.70;;;;;;5121018;28;20024;-89
2021/04/24 08:25:16;;;;;;;8.82;5.80;;;4.20;98.00;;;;;;5098041;28;20404;-88
2021/04/24 08:27:43;;;;;;;5.47;4.88;;;4.30;98.20;;;;;;5117298;28;20065;-90
2021/04/24 08:30:13;;;;;;;8.70;5.88;;;4.20;98.20;;;;;;5102813;28;20024;-94
2021/04/24 08:32:40;;;;;;;5.82;4.60;;;4.30;98.40;;;;;;5118909;28;20389;-88
2021/04/24 08:35:07;;;;;;;6.93;4.40;;;4.20;98.40;;;;;;5091631;28;20020;-87
2021/04/24 08:37:34;;;;;;;6.03;4.32;;;4.20;98.50;;;;;;5109411;28;20024;-89
2021/04/24 08:40:00;;;;;;;5.78;4.60;;;4.20;98.70;;;;;;5114745;28;20023;-87
2021/04/24 08:42:27;;;;;;;6.57;5.30;;;4.30;99.00;;;;;;5112540;28;20027;-87
2021/04/24 08:44:53;;;;;;;6.27;5.13;;;4.40;99.10;;;;;;5098228;28;20020;-86
2021/04/24 08:47:23;;;;;;;6.63;5.00;;;4.50;99.10;;;;;;5114457;28;20760;-82
2021/04/24 08:49:53;;;;;;;8.18;4.78;;;4.50;98.80;;;;;;5105764;28;20431;-85
2021/04/24 08:52:21;;;;;;;5.07;4.45;;;4.40;98.70;;;;;;5105975;28;20020;-83
2021/04/24 08:54:47;;;;;;;5.47;4.70;;;4.50;98.70;;;;;;5105243;28;20023;-87
2021/04/24 08:57:13;;;;;;;5.60;5.00;;;4.40;98.70;;;;;;5111766;28;20075;-84
2021/04/24 08:59:39;;;;;;;6.50;4.35;;;4.40;98.70;;;;;;5111382;28;20066;-85
2021/04/24 09:02:06;;;;;;;4.97;3.97;;;4.40;98.60;;;;;;5097188;28;20036;-82
2021/04/24 09:04:32;;;;;;;5.18;3.97;;;4.40;98.70;;;;;;5093066;28;20442;-80
2021/04/24 09:06:58;;;;;;;5.18;3.90;;;4.40;98.60;;;;;;5103397;28;20016;-85
2021/04/24 09:09:27;;;;;;;4.78;4.13;;;4.40;98.40;;;;;;5101112;28;20097;-82
2021/04/24 09:11:56;;;;;;;4.80;3.92;;;4.40;98.60;;;;;;5101917;28;20024;-86
2021/04/24 09:14:25;;;;;;;5.30;4.07;;;4.30;98.50;;;;;;5093518;28;20016;-86
2021/04/24 09:16:52;;;;;;;3.97;3.50;;;4.30;98.50;;;;;;5097247;28;20021;-88
2021/04/24 09:19:27;;;;;;;6.07;4.03;;;4.30;98.50;;;;;;5109165;28;20020;-88
2021/04/24 09:22:22;;;;;;;7.03;4.60;;;4.30;98.50;;;;;;5100203;28;20484;-86
2021/04/24 09:24:50;;;;;;;4.20;3.80;;;4.20;98.40;;;;;;5092819;28;21062;-84
2021/04/24 09:27:16;;;;;;;6.07;4.13;;;4.30;98.70;;;;;;5101624;28;20027;-86
2021/04/24 09:29:43;;;;;;;5.13;4.63;;;4.30;98.70;;;;;;5097789;28;20098;-92
2021/04/24 09:32:20;;;;;;;4.78;4.28;;;4.30;98.70;;;;;;5100505;28;20082;-86
2021/04/24 09:34:50;;;;;;;;;;;4.30;98.80;;;;;;5108865;28;20047;-85
2021/04/24 09:37:22;;;;;;;5.15;3.70;;;4.20;98.30;;;;;;5106824;28;19972;-93
2021/04/24 09:39:54;;;;;;;5.65;3.63;;;4.20;98.40;;;;;;5102690;28;20035;-82
2021/04/24 09:42:35;;;;;;;4.80;3.97;;;4.20;98.20;;;;;;5101542;28;20050;-83
2021/04/24 09:45:23;;;;;;;6.63;4.25;;;4.20;98.20;;;;;;5114940;28;20023;-85
2021/04/24 09:47:50;;;;;;;6.68;4.63;;;4.10;97.90;;;;;;5114421;28;20020;-81
2021/04/24 09:50:21;;;;;;;5.93;4.45;;;4.10;98.10;;;;;;5096679;28;20024;-87
2021/04/24 09:52:49;;;;;;;5.80;4.20;;;4.20;98.30;;;;;;5080699;28;20024;-87
2021/04/24 09:55:35;;;;;;;6.85;4.38;;;4.30;98.20;;;;;;5106164;28;20036;-89
2021/04/24 09:58:22;;;;;;;4.70;4.18;;;4.30;98.40;;;;;;5105745;28;20452;-90
2021/04/24 10:00:48;;;;;;;5.40;4.35;;;4.30;98.70;;;;;;5093516;28;20040;-90
2021/04/24 10:03:36;;;;;;;3.53;2.92;;;4.50;98.80;;;;;;5104352;28;20016;-89
2021/04/24 10:06:22;;;;;;;6.03;4.20;;;4.40;98.20;;;;;;5105347;28;20466;-84
2021/04/24 10:08:51;;;;;;;6.40;4.30;;;4.40;98.20;;;;;;5091852;28;20028;-87
2021/04/24 10:11:29;;;;;;;5.20;4.20;;;4.50;98.50;;;;;;5112104;28;20027;-87
2021/04/24 10:13:55;;;;;;;5.57;4.13;;;4.70;98.70;;;;;;5104079;28;20084;-85
2021/04/24 10:16:43;;;;;;;4.78;3.88;;;4.80;98.50;;;;;;5112019;28;20020;-92
2021/04/24 10:19:15;;;;;;;4.55;4.10;;;4.70;97.80;;;;;;5095868;28;20046;-88
2021/04/24 10:21:44;;;;;;;4.22;3.45;;;4.80;98.20;;;;;;5119563;28;20052;-90
2021/04/24 10:24:11;;;;;;;5.40;3.38;;;4.80;98.00;;;;;;5103673;28;20023;-90
2021/04/24 10:26:42;;;;;;;4.63;4.13;;;4.90;97.90;;;;;;5096304;28;20035;-85
2021/04/24 10:29:08;;;;;;;4.63;4.20;;;4.90;97.60;;;;;;5092557;28;20029;-86
2021/04/24 10:31:36;;;;;;;4.13;3.58;;;4.90;97.60;;;;;;5097388;28;20025;-88
2021/04/24 10:34:05;;;;;;;6.13;4.35;;;4.90;97.90;;;;;;5091510;28;20036;-89
2021/04/24 10:36:35;;;;;;;4.93;4.28;;;5.00;98.00;;;;;;5101788;28;20058;-89
2021/04/24 10:39:03;;;;;;;5.47;4.05;;;5.10;97.90;;;;;;5105483;28;20016;-89
2021/04/24 10:41:56;;;;;;;4.10;3.55;;;5.10;97.80;;;;;;5104205;28;20110;-90
2021/04/24 10:44:42;;;;;;;5.18;3.08;;;5.20;97.30;;;;;;5106042;28;20020;-88
2021/04/24 10:47:15;;;;;;;3.60;2.90;;;5.20;97.50;;;;;;5103642;28;20036;-88
2021/04/24 10:50:08;;;;;;;4.50;3.50;;;5.20;97.50;;;;;;5106675;28;20267;-84
2021/04/24 10:52:43;;;;;;;4.93;3.33;;;5.30;97.80;;;;;;5107320;28;20093;-93
2021/04/24 10:55:22;;;;;;;4.05;3.47;;;5.40;97.50;;;;;;5110796;28;20100;-89
2021/04/24 10:57:51;;;;;;;4.13;3.10;;;5.40;96.90;;;;;;5098220;28;20403;-89
2021/04/24 11:00:33;;;;;;;4.65;3.30;;;5.40;97.00;;;;;;5105890;28;20489;-87
2021/04/24 11:03:04;;;;;;;4.57;2.95;;;5.40;97.20;;;;;;5093152;28;20054;-94
2021/04/24 11:05:45;;;;;;;4.60;3.17;;;5.40;97.60;;;;;;5103546;28;20481;-89
2021/04/24 11:08:12;;;;;;;3.00;2.70;;;5.50;97.50;;;;;;5103960;28;20047;-88
2021/04/24 11:11:18;;;;;;;4.82;3.13;;;5.50;97.40;;;;;;5110141;28;20084;-92
2021/04/24 11:13:48;;;;;;;3.58;2.40;;;5.50;97.50;;;;;;5023918;28;20038;-93
2021/04/24 11:16:16;;;;;;;4.25;2.60;;;5.50;97.30;;;;;;5022652;28;20026;-91
2021/04/24 11:18:45;;;;;;;3.30;2.70;;;5.50;96.90;;;;;;5028581;28;20033;-90
2021/04/24 11:21:18;;;;;;;3.53;2.55;;;5.50;96.50;;;;;;5005648;28;20040;-91
2021/04/24 11:23:49;;;;;;;7.75;4.25;;;5.50;96.70;;;;;;5019665;28;20030;-90
2021/04/24 11:26:23;;;;;;;2.63;2.28;;;5.50;96.70;;;;;;5007339;28;20188;-91
2021/04/24 11:29:00;;;;;;;3.60;2.67;;;5.50;96.00;;;;;;5005490;28;20026;-92
2021/04/24 11:31:57;;;;;;;2.83;1.85;;;5.50;96.10;;;;;;5001545;28;20055;-89
2021/04/24 11:34:51;;;;;;;2.10;1.90;;;5.50;95.40;;;;;;5025953;28;20025;-84
2021/04/24 11:37:26;;;;;;;2.85;2.03;;;5.40;95.40;;;;;;5017464;28;20030;-90
2021/04/24 11:40:11;;;;;;;4.10;2.65;;;5.30;95.40;;;;;;5022261;28;20026;-91
2021/04/24 11:42:49;;;;;;;2.55;1.77;;;5.40;95.80;;;;;;5031054;28;20101;-84
2021/04/24 11:45:16;;;;;;;2.75;2.15;;;5.40;95.90;;;;;;5049112;28;20029;-85
2021/04/24 11:47:47;;;;;;;4.40;2.20;;;5.40;95.50;;;;;;5048669;28;20026;-82
2021/04/24 11:50:15;;;;;;;2.88;1.90;;;5.40;95.60;;;;;;5050440;28;20023;-80
2021/04/24 11:52:54;;;;;;;4.10;2.17;;;5.40;95.50;;;;;;5112135;28;20377;-83
2021/04/24 11:55:23;;;;;;;2.13;1.90;;;5.50;95.60;;;;;;5109198;28;20103;-84
2021/04/24 11:58:01;;;;;;;4.28;2.67;;;5.70;95.80;;;;;;5112282;27;20030;-82
2021/04/24 12:00:30;;;;;;;;;;;5.80;95.90;;;;;;5092921;28;20016;-85
2021/04/24 12:02:56;;;;;;;3.92;2.13;;;5.80;95.60;;;;;;5097883;28;19904;-85
2021/04/24 12:05:27;;;;;;;3.45;2.38;;;5.80;94.70;;;;;;5095870;28;20474;-84
2021/04/24 12:07:53;;;;;;;3.22;2.00;;;5.80;94.60;;;;;;5087353;28;20400;-80
2021/04/24 12:10:26;;;;;;;3.05;2.22;;;5.90;95.20;;;;;;5095573;28;20016;-83
2021/04/24 12:12:52;;;;;;;2.72;2.15;;;6.00;94.80;;;;;;5095147;28;20122;-79
2021/04/24 12:15:26;;;;;;;4.85;2.33;;;6.20;94.70;;;;;;5095761;28;20059;-80
2021/04/24 12:17:56;;;;;;;2.90;2.60;;;6.30;94.70;;;;;;5082892;28;20024;-79
2021/04/24 12:20:45;;;;;;;6.47;3.47;;;6.30;94.10;;;;;;5096412;28;20040;-82
2021/04/24 12:23:13;;;;;;;2.92;2.63;;;6.30;93.30;;;;;;5095214;28;20407;-81
2021/04/24 12:25:42;;;;;;;4.38;3.30;;;6.40;94.00;;;;;;5093431;28;20431;-79
2021/04/24 12:28:10;;;;;;;5.70;3.42;;;6.40;93.30;;;;;;5094922;28;20043;-80
2021/04/24 12:30:42;;;;;;;;;;;6.50;92.90;;;;;;5095182;28;20024;-81
2021/04/24 12:33:22;;;;;;;8.07;3.85;;;6.50;93.10;;;;;;5094024;28;19911;-81
2021/04/24 12:35:57;;;;;;;8.95;3.55;;;6.50;93.30;;;;;;5093742;28;20431;-80
2021/04/24 12:38:24;;;;;;;3.88;3.20;;;6.50;93.60;;;;;;5092578;28;20066;-78
2021/04/24 12:40:53;;;;;;;3.28;2.78;;;6.50;93.80;;;;;;5093903;28;20035;-79
2021/04/24 12:43:29;;;;;;;5.68;4.07;;;6.40;93.10;;;;;;5088796;28;20023;-79
2021/04/24 12:46:01;;;;;;;4.22;3.20;;;6.30;93.60;;;;;;5092300;28;20488;-81
2021/04/24 12:48:37;;;;;;;6.18;3.35;;;6.30;93.10;;;;;;5091548;28;20031;-82
2021/04/24 12:51:04;;;;;;;3.70;3.00;;;6.20;92.50;;;;;;5093646;28;20024;-80
2021/04/24 12:53:35;;;;;;;3.95;3.55;;;6.20;93.10;;;;;;5092039;28;20016;-81
2021/04/24 12:56:19;;;;;;;6.85;3.75;;;6.20;92.10;;;;;;5093047;28;20038;-82
2021/04/24 12:58:47;;;;;;;4.78;3.75;;;6.20;92.60;;;;;;5092260;28;20016;-80
2021/04/24 13:01:18;;;;;;;4.78;3.72;;;6.20;92.60;;;;;;5091512;28;20040;-81
2021/04/24 13:03:46;;;;;;;5.32;3.00;;;6.20;92.90;;;;;;5093526;28;20028;-83